Time;durP1;ratioP1;P1;durP2;ratioP2;P2;SDS_P1;SDS_P2;PMS_P1;PMS_P2;Temp;Humidity;BMP_temperature;BMP_pressure;BME280_temperature;BME280_humidity;BME280_pressure;Samples;Min_cycle;Max_cycle;Signal;HPM_P1;HPM_P2
2023/01/18 00:00:13;;;;;;;8.98;5.80;;;0.10;99.90;;;;;;5031094;28;20119;-42
2023/01/18 00:02:39;;;;;;;12.02;6.55;;;0.00;99.90;;;;;;5026624;28;20402;-47
2023/01/18 00:05:07;;;;;;;16.02;6.03;;;0.00;99.90;;;;;;5029806;28;20053;-51
2023/01/18 00:07:35;;;;;;;11.23;5.90;;;0.00;99.90;;;;;;5028313;28;20046;-49
2023/01/18 00:10:02;;;;;;;9.30;6.00;;;0.00;99.90;;;;;;5031084;28;20088;-50
2023/01/18 00:12:29;;;;;;;11.20;6.00;;;0.00;99.90;;;;;;5031100;28;20061;-49
2023/01/18 00:14:56;;;;;;;14.68;5.97;;;0.00;99.90;;;;;;5028993;28;20551;-46
2023/01/18 00:17:23;;;;;;;14.32;5.88;;;-0.10;99.90;;;;;;5030197;28;20076;-48
2023/01/18 00:19:49;;;;;;;17.08;6.28;;;0.00;99.90;;;;;;5029930;28;20456;-51
2023/01/18 00:22:16;;;;;;;8.90;5.88;;;0.00;99.90;;;;;;5029590;28;20115;-50
2023/01/18 00:24:44;;;;;;;9.93;5.40;;;0.00;99.90;;;;;;5029745;28;20513;-46
2023/01/18 00:27:11;;;;;;;9.50;5.63;;;-0.10;99.90;;;;;;5032422;28;20220;-51
2023/01/18 00:29:38;;;;;;;8.05;5.20;;;-0.10;99.90;;;;;;5033234;28;20591;-51
2023/01/18 00:32:05;;;;;;;9.30;5.60;;;-0.10;99.90;;;;;;5033783;28;20081;-49
2023/01/18 00:34:32;;;;;;;13.18;6.10;;;-0.10;99.90;;;;;;5034459;28;20057;-50
2023/01/18 00:36:59;;;;;;;12.77;5.72;;;-0.10;99.90;;;;;;5033778;28;20085;-51
2023/01/18 00:39:26;;;;;;;8.75;5.30;;;-0.10;99.90;;;;;;5034078;28;20045;-51
2023/01/18 00:44:43;;;;;;;10.20;5.90;;;-0.10;99.90;;;;;;4990173;28;20410;-50
2023/01/18 00:47:10;;;;;;;11.27;6.25;;;-0.10;99.90;;;;;;5032095;28;20179;-52
2023/01/18 00:49:37;;;;;;;12.95;6.60;;;0.10;99.90;;;;;;5033451;28;20049;-52
2023/01/18 00:52:04;;;;;;;12.48;6.20;;;-0.10;99.90;;;;;;5033357;28;20445;-53
2023/01/18 00:54:31;;;;;;;11.45;6.60;;;-0.10;99.90;;;;;;5031561;28;20115;-49
2023/01/18 00:56:59;;;;;;;12.48;6.43;;;-0.10;99.90;;;;;;5033152;28;20076;-49
2023/01/18 00:59:26;;;;;;;13.27;6.22;;;-0.20;99.90;;;;;;5032102;28;20073;-48
2023/01/18 01:01:53;;;;;;;8.20;6.05;;;-0.10;99.90;;;;;;5033291;28;20054;-51
2023/01/18 01:07:04;;;;;;;10.32;6.20;;;-0.10;99.90;;;;;;5031528;28;20049;-55
2023/01/18 01:09:31;;;;;;;14.13;6.72;;;-0.20;99.90;;;;;;5030679;28;20445;-51
2023/01/18 01:26:04;;;;;;;11.10;6.60;;;-0.30;99.90;;;;;;5030804;28;20049;-51
2023/01/18 01:28:32;;;;;;;11.48;6.90;;;-0.30;99.90;;;;;;5052132;28;20049;-50
2023/01/18 01:30:59;;;;;;;12.32;7.13;;;-0.30;99.90;;;;;;5032436;28;20053;-47
2023/01/18 01:33:26;;;;;;;9.80;6.93;;;-0.30;99.90;;;;;;5032220;28;20053;-51
2023/01/18 01:35:55;;;;;;;14.05;7.07;;;-0.30;99.90;;;;;;5032743;28;20076;-53
2023/01/18 01:38:22;;;;;;;11.07;7.05;;;-0.40;99.90;;;;;;5032240;28;20100;-49
2023/01/18 01:40:56;;;;;;;12.40;7.30;;;-0.40;99.90;;;;;;5032980;28;20088;-48
2023/01/18 01:43:38;;;;;;;9.82;6.88;;;-0.40;99.90;;;;;;5018494;28;20081;-51
2023/01/18 01:46:05;;;;;;;14.07;6.90;;;-0.40;99.90;;;;;;5030576;28;20132;-47
2023/01/18 01:48:31;;;;;;;11.35;6.70;;;-0.40;99.90;;;;;;5032850;28;20092;-53
2023/01/18 01:50:58;;;;;;;15.07;7.03;;;-0.40;99.90;;;;;;5031624;28;20057;-50
2023/01/18 01:53:26;;;;;;;9.95;6.65;;;-0.30;99.90;;;;;;5032032;28;20049;-53
2023/01/18 01:55:53;;;;;;;14.88;7.60;;;-0.40;99.90;;;;;;5032457;28;20403;-50
2023/01/18 01:58:21;;;;;;;12.52;6.72;;;-0.40;99.90;;;;;;5032637;28;20080;-49
2023/01/18 02:00:52;;;;;;;11.10;6.78;;;-0.40;99.90;;;;;;5032090;28;20050;-49
2023/01/18 02:03:18;;;;;;;12.38;7.28;;;-0.40;99.90;;;;;;5032252;28;20124;-51
2023/01/18 02:05:46;;;;;;;10.13;7.35;;;-0.40;99.90;;;;;;5029130;28;20049;-50
2023/01/18 02:08:21;;;;;;;11.75;7.45;;;-0.40;99.90;;;;;;5028278;28;20089;-51
2023/01/18 02:10:48;;;;;;;13.18;7.63;;;-0.40;99.90;;;;;;5032412;28;20053;-54
2023/01/18 02:13:14;;;;;;;11.00;7.22;;;-0.40;99.90;;;;;;5031869;28;20049;-51
2023/01/18 02:15:44;;;;;;;13.30;7.20;;;-0.40;99.90;;;;;;5029175;28;20512;-52
2023/01/18 02:18:17;;;;;;;10.73;7.28;;;-0.40;99.90;;;;;;5031239;28;20477;-51
2023/01/18 02:21:10;;;;;;;13.35;8.55;;;-0.50;99.90;;;;;;5030015;28;20049;-55
2023/01/18 02:24:25;;;;;;;12.63;8.48;;;-0.50;99.90;;;;;;5030255;28;20041;-54
2023/01/18 02:27:03;;;;;;;11.57;7.95;;;-0.50;99.90;;;;;;5035355;28;20500;-57
2023/01/18 02:29:44;;;;;;;17.58;8.50;;;-0.50;99.90;;;;;;5039802;28;20107;-54
2023/01/18 02:32:33;;;;;;;10.35;7.82;;;-0.50;99.90;;;;;;5027182;28;20053;-55
2023/01/18 02:35:05;;;;;;;15.88;8.30;;;-0.60;99.90;;;;;;5029151;28;20140;-57
2023/01/18 02:37:37;;;;;;;12.05;8.30;;;-0.60;99.90;;;;;;5030784;28;20107;-54
2023/01/18 02:40:10;;;;;;;13.43;8.15;;;-0.60;99.90;;;;;;5029794;28;20099;-53
2023/01/18 02:48:09;;;;;;;15.40;8.75;;;-0.70;99.90;;;;;;5030440;28;20512;-55
2023/01/18 02:50:36;;;;;;;15.57;8.75;;;-0.70;99.90;;;;;;5028735;28;20095;-56
2023/01/18 02:53:03;;;;;;;11.68;8.07;;;-0.70;99.90;;;;;;5031019;28;21227;-55
2023/01/18 02:55:37;;;;;;;14.35;8.07;;;-0.70;99.90;;;;;;5031720;28;20065;-57
2023/01/18 02:58:06;;;;;;;11.75;8.82;;;-0.70;99.90;;;;;;5030811;28;20081;-56
2023/01/18 03:00:34;;;;;;;12.60;7.82;;;-0.80;99.90;;;;;;5028025;28;20162;-57
2023/01/18 03:03:01;;;;;;;15.70;8.98;;;-0.80;99.90;;;;;;5030638;28;20089;-37
2023/01/18 03:05:27;;;;;;;16.02;8.45;;;-0.80;99.90;;;;;;5031753;28;20080;-55
2023/01/18 03:07:55;;;;;;;12.27;8.38;;;-0.80;99.90;;;;;;5028410;28;20132;-47
2023/01/18 03:10:22;;;;;;;13.07;7.68;;;-0.80;99.90;;;;;;5030038;28;20135;-52
2023/01/18 03:12:52;;;;;;;15.05;8.23;;;-0.80;99.90;;;;;;5029483;28;20141;-58
2023/01/18 03:15:22;;;;;;;13.63;7.82;;;-0.80;99.90;;;;;;5030846;28;20096;-58
2023/01/18 03:17:51;;;;;;;14.93;7.53;;;-0.80;99.90;;;;;;5029338;28;20151;-58
2023/01/18 03:20:24;;;;;;;14.20;8.18;;;-0.70;99.90;;;;;;5030793;28;20155;-58
2023/01/18 03:25:40;;;;;;;11.82;7.13;;;-0.80;99.90;;;;;;5029423;28;20053;-57
2023/01/18 03:33:46;;;;;;;16.40;8.80;;;-0.80;99.90;;;;;;5030040;28;20085;-57
2023/01/18 03:36:16;;;;;;;14.18;8.18;;;-0.80;99.90;;;;;;5030354;28;20072;-57
2023/01/18 03:38:43;;;;;;;15.65;8.40;;;-0.80;99.90;;;;;;5030744;28;20042;-61
2023/01/18 03:41:10;;;;;;;15.95;9.20;;;-0.80;99.90;;;;;;5028324;28;20077;-58
2023/01/18 03:43:37;;;;;;;16.52;9.25;;;-0.80;99.90;;;;;;5029189;28;20480;-58
2023/01/18 03:46:04;;;;;;;15.38;9.07;;;-0.80;99.90;;;;;;5030427;28;20050;-59
2023/01/18 03:48:31;;;;;;;15.07;8.75;;;-0.80;99.90;;;;;;5030023;28;20087;-58
2023/01/18 03:51:02;;;;;;;14.32;8.70;;;-0.80;99.90;;;;;;5030149;28;20489;-59
2023/01/18 03:53:31;;;;;;;15.73;9.07;;;-0.90;99.90;;;;;;5029568;28;20134;-58
2023/01/18 03:56:00;;;;;;;20.77;9.93;;;-0.80;99.90;;;;;;5030547;28;20081;-57
2023/01/18 03:58:31;;;;;;;13.43;8.85;;;-0.90;99.90;;;;;;5031254;28;20073;-56
2023/01/18 04:00:57;;;;;;;16.27;9.43;;;-0.90;99.90;;;;;;5029829;28;20099;-58
2023/01/18 04:03:24;;;;;;;16.35;8.77;;;-0.90;99.90;;;;;;5032007;28;20053;-54
2023/01/18 04:05:51;;;;;;;14.15;9.30;;;-0.90;99.90;;;;;;5033569;28;20096;-59
2023/01/18 04:08:21;;;;;;;16.63;9.48;;;-0.90;99.90;;;;;;5031629;28;20389;-58
2023/01/18 04:10:48;;;;;;;17.17;9.73;;;-0.90;99.90;;;;;;5035572;28;20045;-62
2023/01/18 04:13:15;;;;;;;14.75;9.43;;;-0.90;99.90;;;;;;5033394;28;20135;-59
2023/01/18 04:15:42;;;;;;;16.33;9.38;;;-1.00;99.90;;;;;;5033421;28;20053;-59
2023/01/18 04:18:08;;;;;;;14.57;9.93;;;-1.00;99.90;;;;;;5033572;28;20069;-60
2023/01/18 04:20:35;;;;;;;16.98;10.18;;;-1.00;99.90;;;;;;5031678;28;20053;-54
2023/01/18 04:23:03;;;;;;;13.95;9.40;;;-0.90;99.90;;;;;;5034114;28;20059;-59
2023/01/18 04:25:31;;;;;;;17.92;9.63;;;-1.00;99.90;;;;;;5032831;28;20057;-58
2023/01/18 04:27:58;;;;;;;19.73;9.95;;;-1.00;99.90;;;;;;5047463;28;20052;-57
2023/01/18 04:30:26;;;;;;;15.00;9.27;;;-1.00;99.90;;;;;;5036105;28;20081;-62
2023/01/18 04:32:52;;;;;;;19.92;9.70;;;-1.00;99.90;;;;;;5033540;28;20489;-59
2023/01/18 04:35:19;;;;;;;18.60;9.95;;;-1.00;99.90;;;;;;5033318;28;20081;-59
2023/01/18 04:37:51;;;;;;;19.02;9.43;;;-1.00;99.90;;;;;;5032622;28;20092;-58
2023/01/18 04:40:18;;;;;;;13.95;9.20;;;-1.00;99.90;;;;;;5027126;28;20089;-54
2023/01/18 04:42:51;;;;;;;14.70;9.43;;;-1.10;99.90;;;;;;5029575;28;20069;-59
2023/01/18 04:45:18;;;;;;;13.88;9.50;;;-1.00;99.90;;;;;;5032459;28;20077;-58
2023/01/18 04:47:45;;;;;;;17.50;10.23;;;-1.10;99.90;;;;;;5029731;28;20075;-60
2023/01/18 04:50:12;;;;;;;18.02;9.95;;;-1.10;99.90;;;;;;5033516;28;20515;-58
2023/01/18 04:52:39;;;;;;;17.30;9.60;;;-1.10;99.90;;;;;;5032209;28;20108;-61
2023/01/18 04:55:07;;;;;;;15.25;9.13;;;-1.10;99.90;;;;;;5032281;28;20397;-59
2023/01/18 04:57:34;;;;;;;18.17;10.02;;;-1.10;99.90;;;;;;5031544;28;20104;-57
2023/01/18 05:00:02;;;;;;;14.05;9.70;;;-1.10;99.90;;;;;;5032742;28;20110;-57
2023/01/18 05:02:29;;;;;;;17.23;8.68;;;-1.10;99.90;;;;;;5033337;28;20045;-57
2023/01/18 05:04:55;;;;;;;14.52;10.23;;;-1.20;99.90;;;;;;5027664;28;20567;-58
2023/01/18 05:07:24;;;;;;;16.05;8.80;;;-1.20;99.90;;;;;;5033125;28;20104;-57
2023/01/18 05:09:51;;;;;;;18.58;9.38;;;-1.10;99.90;;;;;;5032998;28;20478;-57
2023/01/18 05:12:18;;;;;;;17.35;9.70;;;-1.20;99.90;;;;;;5031194;28;20053;-48
2023/01/18 05:14:45;;;;;;;20.50;10.88;;;-1.10;99.90;;;;;;5032326;28;21146;-59
2023/01/18 05:17:13;;;;;;;15.15;9.38;;;-1.10;99.90;;;;;;5031136;28;20551;-54
2023/01/18 05:19:40;;;;;;;18.92;9.70;;;-1.10;99.90;;;;;;5029969;28;20068;-58
2023/01/18 05:22:07;;;;;;;19.05;10.43;;;-1.10;99.90;;;;;;5031461;28;20794;-58
2023/01/18 05:24:33;;;;;;;13.73;9.23;;;-1.10;99.90;;;;;;5033379;28;20492;-56
2023/01/18 05:27:00;;;;;;;16.25;10.07;;;-1.10;99.90;;;;;;5033004;28;20137;-59
2023/01/18 05:29:27;;;;;;;14.80;10.05;;;-1.10;99.90;;;;;;5032348;28;20058;-58
2023/01/18 05:31:54;;;;;;;16.58;9.10;;;-1.10;99.90;;;;;;5028084;28;20053;-57
2023/01/18 05:34:22;;;;;;;18.65;9.77;;;-1.10;99.90;;;;;;5030628;28;20124;-59
2023/01/18 05:36:49;;;;;;;16.95;10.52;;;-1.20;99.90;;;;;;5027871;28;20095;-46
2023/01/18 05:39:15;;;;;;;17.48;11.73;;;-1.10;99.90;;;;;;5030197;28;20054;-59
2023/01/18 05:41:42;;;;;;;17.55;10.80;;;-1.10;99.90;;;;;;5033100;28;20080;-58
2023/01/18 05:44:09;;;;;;;16.92;11.38;;;-1.10;99.90;;;;;;5031104;28;20088;-58
2023/01/18 05:46:36;;;;;;;14.65;10.80;;;-1.10;99.90;;;;;;5031672;28;20394;-47
2023/01/18 05:49:03;;;;;;;14.82;10.23;;;-1.10;99.90;;;;;;5033329;28;20139;-59
2023/01/18 05:51:31;;;;;;;15.88;11.10;;;-1.20;99.90;;;;;;5032797;28;20409;-60
2023/01/18 05:53:58;;;;;;;15.90;10.98;;;-1.20;99.90;;;;;;5031828;28;20099;-58
2023/01/18 05:56:25;;;;;;;18.60;11.45;;;-1.20;99.90;;;;;;5028766;28;20445;-54
2023/01/18 05:58:51;;;;;;;17.00;10.73;;;-1.10;99.90;;;;;;5032138;28;20080;-59
2023/01/18 06:01:18;;;;;;;17.92;10.00;;;-1.20;99.90;;;;;;5028119;28;20141;-53
2023/01/18 06:03:45;;;;;;;17.80;10.35;;;-1.20;99.90;;;;;;5030446;28;20689;-59
2023/01/18 06:06:12;;;;;;;17.75;10.95;;;-1.20;99.90;;;;;;5026835;28;20133;-58
2023/01/18 06:08:40;;;;;;;17.67;10.13;;;-1.20;99.90;;;;;;5023008;28;20412;-59
2023/01/18 06:11:07;;;;;;;16.45;10.20;;;-1.20;99.90;;;;;;5028689;28;20132;-57
2023/01/18 06:13:33;;;;;;;19.13;10.55;;;-1.20;99.90;;;;;;5032085;28;20080;-58
2023/01/18 06:16:00;;;;;;;19.45;10.85;;;-1.20;99.90;;;;;;5031553;28;20089;-57
2023/01/18 06:18:28;;;;;;;20.98;12.00;;;-1.20;99.90;;;;;;5031049;28;20092;-59
2023/01/18 06:20:56;;;;;;;18.13;9.90;;;-1.20;99.90;;;;;;5030683;28;20525;-58
2023/01/18 06:23:22;;;;;;;15.23;10.50;;;-1.20;99.90;;;;;;5031754;28;20129;-58
2023/01/18 06:25:51;;;;;;;18.15;11.07;;;-1.20;99.90;;;;;;5030252;28;20053;-61
2023/01/18 06:28:18;;;;;;;16.55;10.60;;;-1.10;99.90;;;;;;5049066;28;20111;-54
2023/01/18 06:30:46;;;;;;;16.85;10.90;;;-1.20;99.90;;;;;;5033392;28;20049;-58
2023/01/18 06:33:14;;;;;;;15.25;10.32;;;-1.10;99.90;;;;;;5031015;28;20049;-57
2023/01/18 06:35:42;;;;;;;17.75;9.52;;;-1.10;99.90;;;;;;5032393;28;20050;-57
2023/01/18 06:38:09;;;;;;;15.50;9.27;;;-1.10;99.90;;;;;;5031529;28;20057;-57
2023/01/18 06:40:36;;;;;;;19.83;9.88;;;-1.10;99.90;;;;;;5030852;28;20052;-58
2023/01/18 06:43:04;;;;;;;20.02;9.57;;;-1.10;99.90;;;;;;5030910;28;20464;-59
2023/01/18 06:45:31;;;;;;;17.45;11.23;;;-1.00;99.90;;;;;;5030109;28;20134;-58
2023/01/18 06:47:57;;;;;;;15.02;10.48;;;-1.00;99.90;;;;;;5030164;28;20137;-58
2023/01/18 06:50:24;;;;;;;16.80;10.82;;;-1.00;99.90;;;;;;5031074;28;20494;-49
2023/01/18 06:52:51;;;;;;;17.05;9.35;;;-0.90;99.90;;;;;;5032738;28;20053;-59
2023/01/18 06:55:18;;;;;;;13.52;9.00;;;-0.90;99.90;;;;;;5030885;28;20088;-58
2023/01/18 06:57:46;;;;;;;15.82;9.40;;;-0.90;99.90;;;;;;5030660;28;20045;-58
2023/01/18 07:00:16;;;;;;;16.48;8.77;;;-0.90;99.90;;;;;;5031566;28;20401;-57
2023/01/18 07:02:43;;;;;;;15.75;8.50;;;-0.90;99.90;;;;;;5031337;28;20054;-59
2023/01/18 07:05:10;;;;;;;18.63;8.98;;;-0.80;99.90;;;;;;5031075;28;20099;-55
2023/01/18 07:07:37;;;;;;;15.52;8.25;;;-0.90;99.90;;;;;;5011766;28;20054;-59
2023/01/18 07:10:04;;;;;;;16.20;9.18;;;-0.80;99.90;;;;;;5028540;28;20092;-60
2023/01/18 07:12:31;;;;;;;15.45;8.65;;;-0.80;99.90;;;;;;5030340;28;20110;-56
2023/01/18 07:14:57;;;;;;;11.75;8.50;;;-0.90;99.90;;;;;;5031599;28;20132;-59
2023/01/18 07:17:26;;;;;;;14.07;8.15;;;-0.80;99.90;;;;;;5030586;28;20112;-59
2023/01/18 07:19:52;;;;;;;17.15;9.05;;;-0.80;99.90;;;;;;5031944;28;20053;-60
2023/01/18 07:22:19;;;;;;;13.55;8.25;;;-0.70;99.90;;;;;;5030643;28;20057;-56
2023/01/18 07:24:46;;;;;;;12.10;7.93;;;-0.70;99.90;;;;;;5030456;28;20064;-58
2023/01/18 07:27:13;;;;;;;15.88;8.38;;;-0.80;99.90;;;;;;5028762;28;20137;-58
2023/01/18 07:29:39;;;;;;;15.90;7.57;;;-0.70;99.90;;;;;;5031299;28;20132;-60
2023/01/18 07:32:06;;;;;;;13.73;7.63;;;-0.70;99.90;;;;;;5032331;28;20045;-60
2023/01/18 07:34:34;;;;;;;15.77;7.93;;;-0.70;99.90;;;;;;5030233;28;20077;-58
2023/01/18 07:37:01;;;;;;;14.32;7.68;;;-0.70;99.90;;;;;;5032582;28;20119;-59
2023/01/18 07:39:28;;;;;;;15.63;7.95;;;-0.70;99.90;;;;;;5035050;28;20104;-58
2023/01/18 07:41:55;;;;;;;19.20;8.38;;;-0.70;99.90;;;;;;5034097;28;20588;-59
2023/01/18 07:44:22;;;;;;;15.38;8.68;;;-0.70;99.90;;;;;;5035370;28;20080;-60
2023/01/18 07:46:48;;;;;;;12.65;7.30;;;-0.70;99.90;;;;;;5035483;28;20500;-57
2023/01/18 07:49:15;;;;;;;16.55;8.48;;;-0.70;99.90;;;;;;5034035;28;20356;-59
2023/01/18 07:51:43;;;;;;;15.48;7.93;;;-0.70;99.90;;;;;;5034203;28;20406;-59
2023/01/18 07:54:10;;;;;;;15.23;7.97;;;-0.60;99.90;;;;;;5031984;28;20129;-60
2023/01/18 07:56:37;;;;;;;14.07;8.82;;;-0.70;99.90;;;;;;5034684;28;20145;-59
2023/01/18 07:59:04;;;;;;;16.75;8.63;;;-0.70;99.90;;;;;;5035678;28;20412;-59
2023/01/18 08:01:31;;;;;;;17.30;8.50;;;-0.70;99.90;;;;;;5035443;28;20114;-59
2023/01/18 08:03:58;;;;;;;21.10;9.40;;;-0.70;99.90;;;;;;5035288;28;20057;-58
2023/01/18 08:06:26;;;;;;;18.17;9.77;;;-0.70;99.90;;;;;;5034308;28;20081;-58
2023/01/18 08:08:54;;;;;;;15.40;8.95;;;-0.70;99.90;;;;;;5035233;28;20136;-55
2023/01/18 08:11:21;;;;;;;20.88;10.60;;;-0.70;99.90;;;;;;5033445;28;20104;-60
2023/01/18 08:13:49;;;;;;;17.63;10.90;;;-0.70;99.90;;;;;;5033513;28;20084;-60
2023/01/18 08:16:16;;;;;;;16.48;9.73;;;-0.70;99.90;;;;;;5034101;28;20136;-58
2023/01/18 08:18:44;;;;;;;14.90;9.40;;;-0.80;99.90;;;;;;5034849;28;20049;-58
2023/01/18 08:21:11;;;;;;;16.25;9.95;;;-0.80;99.90;;;;;;5033243;28;20093;-58
2023/01/18 08:23:38;;;;;;;19.35;10.45;;;-0.80;99.90;;;;;;5052056;28;20056;-58
2023/01/18 08:26:07;;;;;;;20.33;11.15;;;-0.80;99.90;;;;;;5036160;28;20042;-59
2023/01/18 08:28:33;;;;;;;19.77;11.93;;;-0.80;99.90;;;;;;5034439;28;20075;-54
2023/01/18 08:31:11;;;;;;;17.00;10.82;;;-0.80;99.90;;;;;;5032007;28;20057;-60
2023/01/18 08:33:39;;;;;;;19.17;11.48;;;-0.90;99.90;;;;;;5031308;28;20053;-59
2023/01/18 08:36:09;;;;;;;17.95;10.70;;;-0.80;99.90;;;;;;5034256;28;20088;-56
2023/01/18 08:38:36;;;;;;;18.92;10.98;;;-0.80;99.90;;;;;;5032648;28;20060;-58
2023/01/18 08:41:02;;;;;;;22.27;11.02;;;-0.90;99.90;;;;;;5033409;28;20107;-58
2023/01/18 08:43:31;;;;;;;15.68;9.98;;;-0.80;99.90;;;;;;5032577;28;20042;-58
2023/01/18 08:45:58;;;;;;;16.50;9.98;;;-0.80;99.90;;;;;;5032512;28;20049;-59
2023/01/18 08:48:24;;;;;;;20.38;12.25;;;-0.80;99.90;;;;;;5032382;28;20057;-58
2023/01/18 08:50:51;;;;;;;17.20;11.43;;;-0.70;99.90;;;;;;5034087;28;20131;-56
2023/01/18 08:53:18;;;;;;;16.00;10.40;;;-0.70;99.90;;;;;;5029252;28;20144;-60
2023/01/18 08:55:45;;;;;;;17.17;10.05;;;-0.60;99.90;;;;;;5031615;28;20081;-57
2023/01/18 08:58:12;;;;;;;18.60;11.05;;;-0.60;99.90;;;;;;5034070;28;20060;-58
2023/01/18 09:00:40;;;;;;;21.77;12.85;;;-0.50;99.90;;;;;;5032075;28;20137;-58
2023/01/18 09:03:07;;;;;;;21.38;10.75;;;-0.60;99.90;;;;;;5032040;28;20072;-59
2023/01/18 09:05:35;;;;;;;16.17;11.23;;;-0.50;99.90;;;;;;5034375;28;20084;-57
2023/01/18 09:08:02;;;;;;;23.08;12.10;;;-0.50;99.90;;;;;;5033682;28;20112;-60
2023/01/18 09:10:28;;;;;;;18.20;11.50;;;-0.50;99.90;;;;;;5032920;28;20093;-58
2023/01/18 09:12:55;;;;;;;20.35;11.50;;;-0.40;99.90;;;;;;5031606;28;20057;-54
2023/01/18 09:15:22;;;;;;;17.38;12.60;;;-0.40;99.90;;;;;;5025550;28;20120;-59
2023/01/18 09:17:50;;;;;;;19.75;12.45;;;-0.30;99.90;;;;;;5024790;28;20145;-57
2023/01/18 09:20:17;;;;;;;17.60;11.57;;;-0.20;99.90;;;;;;5024579;28;20053;-58
2023/01/18 09:22:46;;;;;;;17.20;10.30;;;-0.30;99.90;;;;;;5041798;28;20081;-59
2023/01/18 09:25:13;;;;;;;19.15;10.68;;;-0.20;99.90;;;;;;5031167;28;20049;-57
2023/01/18 09:27:40;;;;;;;17.55;10.93;;;-0.10;99.90;;;;;;5032194;28;20053;-58
2023/01/18 09:30:08;;;;;;;18.02;11.43;;;-0.20;99.90;;;;;;5024445;28;20053;-49
2023/01/18 09:32:35;;;;;;;18.25;11.23;;;-0.10;99.90;;;;;;5025417;28;20077;-59
2023/01/18 09:35:03;;;;;;;18.10;11.27;;;0.00;99.90;;;;;;5029635;28;20078;-59
2023/01/18 09:37:30;;;;;;;22.02;12.25;;;0.10;99.90;;;;;;5025355;28;20564;-58
2023/01/18 09:39:57;;;;;;;21.00;11.68;;;0.10;99.90;;;;;;5030529;28;20049;-58
2023/01/18 09:42:25;;;;;;;19.08;11.10;;;0.20;99.90;;;;;;5024320;28;20138;-59
2023/01/18 09:44:53;;;;;;;21.30;11.95;;;0.20;99.90;;;;;;5024617;28;20064;-50
2023/01/18 09:47:22;;;;;;;17.33;10.98;;;0.30;99.90;;;;;;5026845;28;20493;-59
2023/01/18 09:49:53;;;;;;;17.98;11.23;;;0.30;99.90;;;;;;5026557;28;20196;-55
2023/01/18 09:52:31;;;;;;;23.00;11.25;;;0.30;99.90;;;;;;5025770;28;20436;-56
2023/01/18 09:55:02;;;;;;;19.63;10.07;;;0.50;99.90;;;;;;5025927;28;20048;-58
2023/01/18 09:57:36;;;;;;;17.38;9.93;;;0.60;99.90;;;;;;5029859;28;20053;-58
2023/01/18 10:00:04;;;;;;;24.88;10.60;;;0.70;99.90;;;;;;5032436;28;20099;-58
2023/01/18 10:02:37;;;;;;;14.75;9.60;;;0.80;99.90;;;;;;5023279;28;20111;-58
2023/01/18 10:05:06;;;;;;;19.50;10.23;;;0.80;99.90;;;;;;5032582;28;20045;-56
2023/01/18 10:07:35;;;;;;;19.70;11.35;;;1.00;99.90;;;;;;5030569;28;20497;-56
2023/01/18 10:10:02;;;;;;;14.07;9.55;;;1.10;99.90;;;;;;5028045;28;20049;-58
2023/01/18 10:12:31;;;;;;;16.25;10.07;;;1.20;99.90;;;;;;5032896;28;20088;-57
2023/01/18 10:15:01;;;;;;;16.17;10.48;;;1.30;99.90;;;;;;5032595;28;20046;-57
2023/01/18 10:17:32;;;;;;;16.08;9.43;;;1.30;99.90;;;;;;5031670;28;20049;-58
2023/01/18 10:20:00;;;;;;;16.63;8.98;;;1.40;99.90;;;;;;5030712;28;20057;-56
2023/01/18 10:22:29;;;;;;;16.20;9.15;;;1.40;99.90;;;;;;5039982;28;20124;-56
2023/01/18 10:24:59;;;;;;;16.98;9.48;;;1.60;99.90;;;;;;5053337;28;20088;-56
2023/01/18 10:27:56;;;;;;;13.00;9.10;;;1.60;99.90;;;;;;5034903;28;20053;-57
2023/01/18 10:30:32;;;;;;;16.15;9.48;;;1.70;99.90;;;;;;4980400;28;20127;-54
2023/01/18 10:32:59;;;;;;;16.38;8.85;;;1.80;99.90;;;;;;5029475;28;20080;-54
2023/01/18 10:35:29;;;;;;;11.93;7.65;;;1.80;99.90;;;;;;5028449;28;20081;-58
2023/01/18 10:37:57;;;;;;;15.38;8.23;;;1.90;99.90;;;;;;5027944;28;20055;-56
2023/01/18 10:40:25;;;;;;;13.60;8.13;;;2.00;99.90;;;;;;5032998;28;20140;-56
2023/01/18 10:42:55;;;;;;;15.18;8.23;;;2.10;99.90;;;;;;5031948;28;20057;-56
2023/01/18 10:45:23;;;;;;;16.88;8.70;;;2.10;99.90;;;;;;5030783;28;20079;-56
2023/01/18 10:47:51;;;;;;;14.57;8.27;;;2.20;99.90;;;;;;5029754;28;20450;-56
2023/01/18 10:50:21;;;;;;;14.50;8.50;;;2.30;99.90;;;;;;5028419;28;20076;-57
2023/01/18 10:52:48;;;;;;;15.05;7.75;;;2.30;99.90;;;;;;5031657;28;20068;-52
2023/01/18 10:55:16;;;;;;;14.05;8.02;;;2.40;99.90;;;;;;5029166;28;20103;-55
2023/01/18 10:57:47;;;;;;;14.00;8.68;;;2.40;99.90;;;;;;5031755;28;20049;-57
2023/01/18 11:00:22;;;;;;;13.57;8.10;;;2.50;99.90;;;;;;5031720;28;20043;-58
2023/01/18 11:02:49;;;;;;;12.70;7.93;;;2.50;99.90;;;;;;5030126;28;20045;-53
2023/01/18 11:05:26;;;;;;;13.27;7.60;;;2.70;99.90;;;;;;5031751;28;20115;-55
2023/01/18 11:08:13;;;;;;;18.88;8.20;;;2.70;99.90;;;;;;5031359;28;20088;-56
2023/01/18 11:10:41;;;;;;;12.50;6.82;;;2.70;99.90;;;;;;5031458;28;20132;-56
2023/01/18 11:16:12;;;;;;;12.20;6.72;;;2.80;99.90;;;;;;5090148;28;20792;-57
2023/01/18 11:18:55;;;;;;;11.65;6.78;;;2.90;99.90;;;;;;5088231;28;20044;-58
2023/01/18 11:21:22;;;;;;;11.38;6.30;;;2.90;99.90;;;;;;5079708;28;20127;-57
2023/01/18 11:23:50;;;;;;;14.32;6.47;;;3.00;99.90;;;;;;5088759;28;20056;-57
2023/01/18 11:26:17;;;;;;;12.90;6.20;;;3.10;99.90;;;;;;5085013;28;20495;-58
2023/01/18 11:28:46;;;;;;;10.98;6.60;;;3.10;99.90;;;;;;5084278;28;20053;-58
2023/01/18 11:31:14;;;;;;;12.40;6.45;;;3.20;99.90;;;;;;5073519;28;20121;-56
2023/01/18 11:33:50;;;;;;;9.25;5.78;;;3.20;99.90;;;;;;5073967;28;20145;-59
2023/01/18 11:36:19;;;;;;;9.00;6.35;;;3.30;99.90;;;;;;5080643;28;20133;-57
2023/01/18 11:38:46;;;;;;;11.13;6.85;;;3.30;99.90;;;;;;5088542;28;20526;-58
2023/01/18 11:41:15;;;;;;;13.23;6.68;;;3.40;99.90;;;;;;5088691;28;20056;-59
2023/01/18 11:43:54;;;;;;;11.27;6.18;;;3.40;99.90;;;;;;5073128;28;20128;-57
2023/01/18 11:46:31;;;;;;;10.55;6.22;;;3.50;99.90;;;;;;5069220;28;20052;-56
2023/01/18 11:48:59;;;;;;;9.88;6.47;;;3.50;99.90;;;;;;5069401;28;20122;-61
2023/01/18 11:51:31;;;;;;;12.98;5.82;;;3.60;99.90;;;;;;5069222;28;20044;-61
2023/01/18 11:54:01;;;;;;;12.82;6.07;;;3.80;99.90;;;;;;5080339;28;20107;-62
2023/01/18 11:56:31;;;;;;;8.98;5.53;;;3.70;99.90;;;;;;5088431;28;20071;-63
2023/01/18 11:58:57;;;;;;;9.32;5.80;;;3.80;99.90;;;;;;5072110;28;20060;-63
2023/01/18 12:01:44;;;;;;;12.10;6.50;;;3.70;99.90;;;;;;5070566;28;20412;-61
2023/01/18 12:04:11;;;;;;;9.07;6.15;;;3.80;99.90;;;;;;5067937;28;20562;-62
2023/01/18 12:06:44;;;;;;;8.20;4.72;;;3.90;99.90;;;;;;5087549;28;20056;-57
2023/01/18 12:09:18;;;;;;;15.02;6.43;;;3.90;99.90;;;;;;5075466;28;20520;-58
2023/01/18 12:11:48;;;;;;;9.35;5.57;;;3.80;99.90;;;;;;5067330;28;20401;-60
2023/01/18 12:14:29;;;;;;;12.00;6.07;;;3.90;99.90;;;;;;5080469;28;20476;-61
2023/01/18 12:17:08;;;;;;;15.43;6.63;;;3.90;99.90;;;;;;5088408;28;20140;-60
2023/01/18 12:19:42;;;;;;;13.00;6.15;;;3.90;99.90;;;;;;5068725;28;20556;-61
2023/01/18 12:22:28;;;;;;;12.45;7.15;;;3.90;99.90;;;;;;5075627;28;20087;-57
2023/01/18 12:25:01;;;;;;;11.60;6.85;;;3.90;99.90;;;;;;5050321;28;20115;-61
2023/01/18 12:27:32;;;;;;;11.18;6.68;;;4.00;99.90;;;;;;5091396;28;20087;-61
2023/01/18 12:30:15;;;;;;;13.63;6.78;;;3.90;99.90;;;;;;5086167;28;20048;-62
2023/01/18 12:32:53;;;;;;;12.52;6.78;;;3.90;99.90;;;;;;5087315;28;20128;-61
2023/01/18 12:35:32;;;;;;;9.55;6.47;;;3.90;99.90;;;;;;5062313;28;20128;-60
2023/01/18 12:38:03;;;;;;;12.15;6.63;;;3.90;99.90;;;;;;5054922;28;20453;-60
2023/01/18 12:40:42;;;;;;;12.10;7.10;;;4.00;99.90;;;;;;5054971;28;20056;-59
2023/01/18 12:43:19;;;;;;;10.85;6.75;;;3.90;99.90;;;;;;5053943;28;20080;-58
2023/01/18 12:45:48;;;;;;;13.95;6.70;;;4.00;99.90;;;;;;5054918;28;20143;-58
2023/01/18 12:48:18;;;;;;;12.13;5.80;;;4.00;99.90;;;;;;5072446;28;20547;-56
2023/01/18 12:50:46;;;;;;;9.93;6.70;;;4.00;99.90;;;;;;5065531;28;20081;-57
2023/01/18 12:53:16;;;;;;;12.95;7.15;;;4.00;99.90;;;;;;5053440;28;20084;-57
2023/01/18 12:55:44;;;;;;;11.75;6.03;;;4.10;99.90;;;;;;5053370;28;20061;-51
2023/01/18 12:58:14;;;;;;;10.73;6.78;;;4.10;99.90;;;;;;5053431;28;20404;-53
2023/01/18 13:00:50;;;;;;;12.52;6.65;;;4.10;99.90;;;;;;5053536;28;20052;-55
2023/01/18 13:03:20;;;;;;;14.55;6.55;;;4.20;99.90;;;;;;5056225;28;20053;-57
2023/01/18 13:05:51;;;;;;;13.88;6.50;;;4.20;99.90;;;;;;5055337;28;20049;-56
2023/01/18 13:08:23;;;;;;;13.35;6.88;;;4.20;99.90;;;;;;5053487;28;20056;-56
2023/01/18 13:10:50;;;;;;;12.40;7.00;;;4.20;99.90;;;;;;5053224;28;20489;-54
2023/01/18 13:13:19;;;;;;;12.02;6.22;;;4.30;99.90;;;;;;5060061;28;20049;-55
2023/01/18 13:15:47;;;;;;;14.43;6.70;;;4.30;99.90;;;;;;5057568;28;20084;-56
2023/01/18 13:18:20;;;;;;;10.38;5.93;;;4.30;99.90;;;;;;5069503;28;20060;-55
2023/01/18 13:20:58;;;;;;;12.07;5.15;;;4.40;99.90;;;;;;5068365;28;20051;-55
2023/01/18 13:23:32;;;;;;;13.27;6.05;;;4.40;99.90;;;;;;5053170;28;20081;-52